Friday, October 24, 2014
18:52 UTC
  |  Log In   |  Register Free
Airport Search:

Teterboro Airport
(KTEB)

Airport information sponsored by:
Landmark Aviation - TEB at Teterboro (KTEB), Teterboro, NJ
FAA data valid effective September 18, 2014 - November 13, 2014 (unless otherwise noted).

 
 
 
 
 
 
 
 
 
 
 
 
 
 

Current Aviation Weather for Teterboro Airport (KTEB)

The most recent METAR observation for KTEB was updated at: 1817
METAR Summary (Translated METAR)
KTEB
241751Z 33008G14KT 10SM OVC039 16/07 A2977 RMK AO2 SLP081 T01610067 10161 20111 58015
KLGA
241751Z 34010KT 10SM OVC039 15/07 A2977 RMK AO2 SLP081 T01500067 10150 20111 58015
(9.6 nm SE from KTEB)
KCDW
241753Z 34011KT 10SM BKN046 16/06 A2979 RMK AO2 SLP091 T01610056 10161 20106 58017
(10.1 nm NW from KTEB)
TAF Summary (Translated TAF)
KTEB
241729Z 2418/2518 32014G21KT P6SM SCT025 BKN040 FM242200 32009KT P6SM SCT040 FM250300 31005KT P6SM SCT250 FM251500 29011KT P6SM FEW040 SCT250
KLGA
(9.6 nm SE from KTEB)
241729Z 2418/2518 32012G22KT P6SM SCT025 BKN040 BKN150 FM242200 32013KT P6SM SCT040 FM250400 31009KT P6SM SCT250 FM251500 29011KT P6SM FEW040 SCT250
  Airport Weather Conditions for KTEB

 Current Weather at TEB
61° F
Overcast
Northwest winds at 9.2 mph
TEB NOAA Radar

Pressure: 29.77 in
Humidity: 54%
Wind: from the Northwest at 9.2 gusting to 16.1 MPH (8 gusting to 14 KT)
Dew Point: 44.1°F
Visibility: 10.00 mi


Airport Weather Forecast for KTEB

Translated METAR and TAF for KTEB
Translated METAR for KTEB (1847 UTC 24 October 2014)
found at http://aviationweather.gov/adds/metars/
 
METAR text: KTEB 241751Z 33008G14KT 10SM OVC039 16/07 A2977 RMK AO2 SLP081 T01610067 10161 20111 58015
Conditions at: KTEB (TETERBORO , NJ, US) observed 1751 UTC 24 October 2014
Temperature: 16.1°C (61°F)
Dewpoint: 6.7°C (44°F) [RH = 54%]
Pressure (altimeter): 29.77 inches Hg (1008.2 mb)
[Sea-level pressure: 1008.1 mb]
Winds: from the NNW (330 degrees) at 9 MPH (8 knots; 4.2 m/s)
gusting to 16 MPH (14 knots; 7.3 m/s)
Visibility: 10 or more miles (16+ km)
Ceiling: 3900 feet AGL
Clouds: overcast cloud deck at 3900 feet AGL
Weather: no significant weather observed at this time
Translated TAF for KTEB
Forecast for: KTEB (TETERBORO , NJ, US)
TAF Text: KTEB 241729Z 2418/2518 32014G21KT P6SM SCT025 BKN040
Forecast period: 1800 to 2200 UTC 24 October 2014
Forecast type: FROM: standard forecast or significant change
Winds: from the NW (320 degrees) at 16 MPH (14 knots; 7.3 m/s)
gusting to 24 MPH (21 knots; 10.9 m/s)
Visibility: 6 or more miles (10+ km)
Ceiling: 4000 feet AGL
Clouds: scattered clouds at 2500 feet AGL
broken clouds at 4000 feet AGL
Weather: no significant weather forecast for this period
TAF Text: FM242200 32009KT P6SM SCT040
Forecast period: 2200 UTC 24 October 2014 to 0300 UTC 25 October 2014
Forecast type: FROM: standard forecast or significant change
Winds: from the NW (320 degrees) at 10 MPH (9 knots; 4.7 m/s)
Visibility: 6 or more miles (10+ km)
Clouds: scattered clouds at 4000 feet AGL
Weather: no significant weather forecast for this period
TAF Text: FM250300 31005KT P6SM SCT250
Forecast period: 0300 to 1500 UTC 25 October 2014
Forecast type: FROM: standard forecast or significant change
Winds: from the NW (310 degrees) at 6 MPH (5 knots; 2.6 m/s)
Visibility: 6 or more miles (10+ km)
Clouds: scattered clouds at 25000 feet AGL
Weather: no significant weather forecast for this period
TAF Text: FM251500 29011KT P6SM FEW040 SCT250
Forecast period: 1500 to 1800 UTC 25 October 2014
Forecast type: FROM: standard forecast or significant change
Winds: from the WNW (290 degrees) at 13 MPH (11 knots; 5.7 m/s)
Visibility: 6 or more miles (10+ km)
Clouds: few clouds at 4000 feet AGL
scattered clouds at 25000 feet AGL
Weather: no significant weather forecast for this period

Find All Airport Services Find A Hotel Find A Rental Car Find A Golf Course Find A Restaurant $100 Hamburger



FBO's on the Field
FBO Company Facility Photos Services Transportation Aviation Fuel Prices: Prices include tax
Catering Weather Repair Courtesy Rental Type 100LL JetA JetA+ MOGAS 8087
 
Landmark Aviation - TEB

Landmark Aviation - TEB logo
Currently rated 4.2 by 5 people
FS:
Last Updated: Oct-24
Login to update fuel prices
SS:
Contact Landmark Aviation - TEBMore FBO Information
 
Atlantic Aviation

Currently rated 4 by 1 person
FS:Texaco
Last Updated: Oct-24
Login to update fuel prices
SS:
Contact Atlantic AviationMore FBO Information
 
Jet Aviation

Currently rated 4.7 by 3 people
FS: Phillips 66
Last Updated: Oct-01
Login to update fuel prices
SS:
Contact Jet AviationMore FBO Information
 
Meridian Teterboro

Currently rated 4.4 by 4 people
FS:Shell
Last Updated: Oct-22
Login to update fuel prices
SS:
Contact Meridian TeterboroMore FBO Information
 
Signature Flight Support

Currently rated 3.4 by 1 person
FS:Independent
Last Updated: Oct-24
Login to update fuel prices
SS:
Contact Signature Flight SupportMore FBO Information
 
Add another FBO Facility Photos Catering Weather Repair Courtesy Rental Type 100LL JetA JetA+ MOGAS 8087
Services Transportation Aviation Fuel Prices: Prices include tax


model-print
model-print
model-print
model-print